createdAt,value
2022-07-30T00:00:23.840Z,17.20
2022-07-30T00:02:52.467Z,17.20
2022-07-30T00:05:19.347Z,17.30
2022-07-30T00:07:46.242Z,17.30
2022-07-30T00:10:13.461Z,17.30
2022-07-30T00:12:40.619Z,17.30
2022-07-30T00:15:08.145Z,17.30
2022-07-30T00:17:35.131Z,17.30
2022-07-30T00:20:02.875Z,17.30
2022-07-30T00:22:31.409Z,17.30
2022-07-30T00:24:58.654Z,17.30
2022-07-30T00:27:25.579Z,17.30
2022-07-30T00:29:52.488Z,17.30
2022-07-30T00:32:19.710Z,17.40
2022-07-30T00:34:46.597Z,17.40
2022-07-30T00:37:13.462Z,17.40
2022-07-30T00:39:40.355Z,17.40
2022-07-30T00:42:07.298Z,17.40
2022-07-30T00:44:34.223Z,17.40
2022-07-30T00:47:01.535Z,17.40
2022-07-30T00:49:28.768Z,17.40
2022-07-30T00:51:55.970Z,17.40
2022-07-30T00:54:23.018Z,17.40
2022-07-30T00:56:50.536Z,17.40
2022-07-30T00:59:17.720Z,17.30
2022-07-30T01:01:44.685Z,17.30
2022-07-30T01:04:11.980Z,17.30
2022-07-30T01:06:40.324Z,17.30
2022-07-30T01:09:08.356Z,17.30
2022-07-30T01:11:41.173Z,17.30
2022-07-30T01:14:09.662Z,17.30
2022-07-30T01:16:39.898Z,17.30
2022-07-30T01:19:48.633Z,17.30
2022-07-30T01:22:30.606Z,17.30
2022-07-30T01:25:04.253Z,17.30
2022-07-30T01:27:35.186Z,17.20
2022-07-30T01:30:05.106Z,17.10
2022-07-30T01:32:34.907Z,17.20
2022-07-30T01:35:03.294Z,17.10
2022-07-30T01:37:31.764Z,17.10
2022-07-30T01:39:59.038Z,17.20
2022-07-30T01:42:28.454Z,17.20
2022-07-30T01:44:57.383Z,17.20
2022-07-30T01:47:25.490Z,17.30
2022-07-30T01:49:54.946Z,17.30
2022-07-30T01:52:23.582Z,17.30
2022-07-30T01:54:52.364Z,17.30
2022-07-30T01:57:21.255Z,17.40
2022-07-30T01:59:50.785Z,17.40
2022-07-30T02:02:18.237Z,17.40
2022-07-30T02:04:45.324Z,17.30
2022-07-30T02:07:27.786Z,17.40
2022-07-30T02:10:01.691Z,17.40
2022-07-30T02:12:30.723Z,17.40
2022-07-30T02:15:11.732Z,17.40
2022-07-30T02:17:45.489Z,17.40
2022-07-30T02:20:16.666Z,17.40
2022-07-30T02:22:47.410Z,17.40
2022-07-30T02:25:21.267Z,17.40
2022-07-30T02:27:56.048Z,17.40
2022-07-30T02:30:27.063Z,17.50
2022-07-30T02:32:59.381Z,17.50
2022-07-30T02:35:29.104Z,17.50
2022-07-30T02:37:57.908Z,17.50
2022-07-30T02:40:25.569Z,17.50
2022-07-30T02:42:54.022Z,17.50
2022-07-30T02:45:23.706Z,17.50
2022-07-30T02:48:01.212Z,17.50
2022-07-30T02:50:29.278Z,17.60
2022-07-30T02:52:59.454Z,17.60
2022-07-30T02:55:28.870Z,17.60
2022-07-30T02:57:57.563Z,17.60
2022-07-30T03:00:26.516Z,17.50
2022-07-30T03:02:56.977Z,17.50
2022-07-30T03:05:25.786Z,17.50
2022-07-30T03:07:56.443Z,17.50
2022-07-30T03:10:24.881Z,17.50
2022-07-30T03:12:52.730Z,17.50
2022-07-30T03:15:20.030Z,17.60
2022-07-30T03:17:53.711Z,17.50
2022-07-30T03:20:26.746Z,17.50
2022-07-30T03:22:55.099Z,17.50
2022-07-30T03:25:27.935Z,17.50
2022-07-30T03:27:56.643Z,17.50
2022-07-30T03:30:25.700Z,17.50
2022-07-30T03:32:53.636Z,17.50
2022-07-30T03:35:31.142Z,17.50
2022-07-30T03:37:59.526Z,17.60
2022-07-30T03:40:26.982Z,17.50
2022-07-30T03:42:54.040Z,17.50
2022-07-30T03:45:21.969Z,17.50
2022-07-30T03:47:49.426Z,17.50
2022-07-30T03:50:16.607Z,17.50
2022-07-30T03:52:43.964Z,17.50
2022-07-30T03:55:12.264Z,17.50
2022-07-30T03:57:39.574Z,17.60
2022-07-30T04:00:12.716Z,17.60
2022-07-30T04:02:47.224Z,17.60
2022-07-30T04:05:15.246Z,17.60
2022-07-30T04:07:45.364Z,17.60
2022-07-30T04:10:13.549Z,17.60
2022-07-30T04:12:40.548Z,17.60
2022-07-30T04:16:38.757Z,17.60
2022-07-30T04:18:01.507Z,17.70
2022-07-30T04:20:34.657Z,17.70
2022-07-30T04:23:02.786Z,17.70
2022-07-30T04:25:30.667Z,17.70
2022-07-30T04:27:58.286Z,17.70
2022-07-30T04:30:34.925Z,17.70
2022-07-30T04:33:03.715Z,17.70
2022-07-30T04:35:51.669Z,17.70
2022-07-30T04:38:19.876Z,17.70
2022-07-30T04:40:47.425Z,17.70
2022-07-30T04:43:14.507Z,17.70
2022-07-30T04:45:42.092Z,17.70
2022-07-30T04:48:09.301Z,17.80
2022-07-30T04:50:39.367Z,17.80
2022-07-30T04:53:06.367Z,17.80
2022-07-30T04:55:35.843Z,17.90
2022-07-30T04:58:04.015Z,17.80
2022-07-30T05:00:32.810Z,17.80
2022-07-30T05:03:02.481Z,17.80
2022-07-30T05:05:32.480Z,17.80
2022-07-30T05:08:01.379Z,17.80
2022-07-30T05:10:28.722Z,17.80
2022-07-30T05:12:55.591Z,17.80
2022-07-30T05:15:23.333Z,17.80
2022-07-30T05:18:03.298Z,17.80
2022-07-30T05:20:30.171Z,17.80
2022-07-30T05:22:58.156Z,17.90
2022-07-30T05:25:25.094Z,17.80
2022-07-30T05:27:52.627Z,17.90
2022-07-30T05:30:19.771Z,17.80
2022-07-30T05:32:53.041Z,17.80
2022-07-30T05:35:20.219Z,17.90
2022-07-30T05:37:47.163Z,17.90
2022-07-30T05:40:14.275Z,17.90
2022-07-30T05:42:41.243Z,17.90
2022-07-30T05:45:08.611Z,17.90
2022-07-30T05:47:35.494Z,17.90
2022-07-30T05:50:05.010Z,17.90
2022-07-30T05:52:32.800Z,17.90
2022-07-30T05:54:59.644Z,18.00
2022-07-30T05:57:26.643Z,18.00
2022-07-30T05:59:53.556Z,18.00
2022-07-30T06:02:20.502Z,18.00
2022-07-30T06:04:52.397Z,18.10
2022-07-30T06:07:19.388Z,18.10
2022-07-30T06:09:46.655Z,18.20
2022-07-30T06:12:13.609Z,18.20
2022-07-30T06:14:40.559Z,18.20
2022-07-30T06:17:08.567Z,18.20
2022-07-30T06:19:35.459Z,18.20
2022-07-30T06:22:06.821Z,18.20
2022-07-30T06:24:34.499Z,18.20
2022-07-30T06:27:01.808Z,18.10
2022-07-30T06:29:29.132Z,18.00
2022-07-30T06:31:56.444Z,18.10
2022-07-30T06:34:23.381Z,18.10
2022-07-30T06:36:50.502Z,18.10
2022-07-30T06:39:53.821Z,18.10
2022-07-30T06:42:04.786Z,18.10
2022-07-30T06:44:31.972Z,18.10
2022-07-30T06:47:01.829Z,18.10
2022-07-30T06:49:33.163Z,18.00
2022-07-30T06:52:00.227Z,18.00
2022-07-30T06:54:27.197Z,18.00
2022-07-30T06:56:54.240Z,18.00
2022-07-30T06:59:21.257Z,18.00
2022-07-30T07:01:48.205Z,18.00
2022-07-30T07:04:15.171Z,18.10
2022-07-30T07:06:42.114Z,18.20
2022-07-30T07:09:08.973Z,18.40
2022-07-30T07:11:35.858Z,18.50
2022-07-30T07:14:04.741Z,18.60
2022-07-30T07:16:32.068Z,18.60
2022-07-30T07:18:59.088Z,18.60
2022-07-30T07:21:25.973Z,18.70
2022-07-30T07:23:52.849Z,18.70
2022-07-30T07:26:19.779Z,18.80
2022-07-30T07:28:46.798Z,18.90
2022-07-30T07:32:05.758Z,19.00
2022-07-30T07:34:00.607Z,19.10
2022-07-30T07:36:27.631Z,19.20
2022-07-30T07:38:54.541Z,19.40
2022-07-30T07:41:21.443Z,19.50
2022-07-30T07:43:48.396Z,19.60
2022-07-30T07:46:17.255Z,19.60
2022-07-30T07:49:01.404Z,19.50
2022-07-30T07:51:47.401Z,19.50
2022-07-30T07:54:23.267Z,19.70
2022-07-30T07:56:56.674Z,19.90
2022-07-30T07:59:26.043Z,20.10
2022-07-30T08:02:03.462Z,20.20
2022-07-30T08:04:30.992Z,20.40
2022-07-30T08:06:58.013Z,20.50
2022-07-30T08:09:25.031Z,20.70
2022-07-30T08:11:51.960Z,20.80
2022-07-30T08:14:18.835Z,20.60
2022-07-30T08:16:45.723Z,20.80
2022-07-30T08:19:12.643Z,20.90
2022-07-30T08:21:39.619Z,21.10
2022-07-30T08:24:07.752Z,21.40
2022-07-30T08:26:34.711Z,21.50
2022-07-30T08:29:01.600Z,21.80
2022-07-30T08:31:28.442Z,21.90
2022-07-30T08:33:55.302Z,22.10
2022-07-30T08:36:25.791Z,22.20
2022-07-30T08:38:53.052Z,22.20
2022-07-30T08:41:21.253Z,22.20
2022-07-30T08:43:50.223Z,22.20
2022-07-30T08:46:19.287Z,22.20
2022-07-30T08:48:48.073Z,22.00
2022-07-30T08:51:18.014Z,22.10
2022-07-30T08:53:45.845Z,22.00
2022-07-30T08:56:13.176Z,22.10
2022-07-30T08:58:41.629Z,22.10
2022-07-30T09:01:09.050Z,22.00
2022-07-30T09:03:38.180Z,21.80
2022-07-30T09:06:11.968Z,22.00
2022-07-30T09:08:38.911Z,22.20
2022-07-30T09:11:05.850Z,22.50
2022-07-30T09:13:38.815Z,22.40
2022-07-30T09:16:06.714Z,22.90
2022-07-30T09:18:42.513Z,22.90
2022-07-30T09:21:27.087Z,23.30
2022-07-30T09:24:04.882Z,23.50
2022-07-30T09:26:35.616Z,23.60
2022-07-30T09:29:23.557Z,23.70
2022-07-30T09:32:02.629Z,23.70
2022-07-30T09:34:35.559Z,23.20
2022-07-30T09:37:05.591Z,23.20
2022-07-30T09:39:33.955Z,23.40
2022-07-30T09:42:03.456Z,23.40
2022-07-30T09:44:31.607Z,23.20
2022-07-30T09:46:58.906Z,23.30
2022-07-30T09:49:28.330Z,23.60
2022-07-30T09:51:57.539Z,23.80
2022-07-30T09:57:31.591Z,24.30
2022-07-30T10:00:15.694Z,24.50
2022-07-30T10:02:42.840Z,24.70
2022-07-30T10:05:14.884Z,24.70
2022-07-30T10:07:54.075Z,24.40
2022-07-30T10:10:25.179Z,24.50
2022-07-30T10:12:59.269Z,24.70
2022-07-30T10:15:32.899Z,24.70
2022-07-30T10:18:06.268Z,24.70
2022-07-30T10:20:35.066Z,24.90
2022-07-30T10:23:08.210Z,24.60
2022-07-30T10:25:37.019Z,24.60
2022-07-30T10:28:17.570Z,24.50
2022-07-30T10:30:45.421Z,24.60
2022-07-30T10:33:34.559Z,24.50
2022-07-30T10:36:02.549Z,24.30
2022-07-30T10:38:34.396Z,24.60
2022-07-30T10:41:15.848Z,24.80
2022-07-30T10:44:01.914Z,24.90
2022-07-30T10:46:55.355Z,24.90
2022-07-30T10:49:25.877Z,25.10
2022-07-30T10:51:57.450Z,25.00
2022-07-30T10:54:33.925Z,25.10
2022-07-30T10:57:15.013Z,25.20
2022-07-30T10:59:50.237Z,25.40
2022-07-30T11:02:19.777Z,25.50
2022-07-30T11:04:46.993Z,25.50
2022-07-30T11:07:23.612Z,25.50
2022-07-30T11:10:04.896Z,25.60
2022-07-30T11:12:46.068Z,25.60
2022-07-30T11:15:20.008Z,25.60
2022-07-30T11:18:05.162Z,25.90
2022-07-30T11:20:39.575Z,26.10
2022-07-30T11:23:20.034Z,26.40
2022-07-30T11:25:51.849Z,26.50
2022-07-30T11:28:49.464Z,26.90
2022-07-30T11:31:55.523Z,27.10
2022-07-30T11:34:25.627Z,27.20
2022-07-30T11:37:18.215Z,27.30
2022-07-30T11:39:55.230Z,27.40
2022-07-30T11:42:30.667Z,27.20
2022-07-30T11:45:16.046Z,27.20
2022-07-30T11:47:51.838Z,27.40
2022-07-30T11:50:19.050Z,27.40
2022-07-30T11:52:54.178Z,27.60
2022-07-30T11:55:33.279Z,27.40
2022-07-30T11:58:01.838Z,27.30
2022-07-30T12:00:47.849Z,27.10
2022-07-30T12:03:17.393Z,27.40
2022-07-30T12:05:44.893Z,27.30
2022-07-30T12:08:32.776Z,27.20
2022-07-30T12:11:01.743Z,27.20
2022-07-30T12:13:45.533Z,26.90
2022-07-30T12:16:17.659Z,26.90
2022-07-30T12:18:46.099Z,26.90
2022-07-30T12:21:16.528Z,26.70
2022-07-30T12:24:04.621Z,26.60
2022-07-30T12:26:34.231Z,26.50
2022-07-30T12:29:06.811Z,26.50
2022-07-30T12:31:34.313Z,26.20
2022-07-30T12:34:23.349Z,25.80
2022-07-30T12:36:50.507Z,25.70
2022-07-30T12:39:25.502Z,25.60
2022-07-30T12:41:56.120Z,25.70
2022-07-30T12:44:44.720Z,25.50
2022-07-30T12:47:20.959Z,25.40
2022-07-30T12:49:49.611Z,25.40
2022-07-30T12:52:34.623Z,25.70
2022-07-30T12:55:09.058Z,25.70
2022-07-30T12:57:56.310Z,25.80
2022-07-30T13:00:28.789Z,26.10
2022-07-30T13:02:56.378Z,26.20
2022-07-30T13:05:43.556Z,26.50
2022-07-30T13:08:10.573Z,27.10
2022-07-30T13:10:38.075Z,27.00
2022-07-30T13:13:05.258Z,27.20
2022-07-30T13:15:32.147Z,27.00
2022-07-30T13:17:59.032Z,27.20
2022-07-30T13:20:25.917Z,27.20
2022-07-30T13:22:52.923Z,27.10
2022-07-30T13:25:20.620Z,27.00
2022-07-30T13:27:48.410Z,26.90
2022-07-30T13:30:15.339Z,26.90
2022-07-30T13:32:42.327Z,27.20
2022-07-30T13:35:09.851Z,27.10
2022-07-30T13:37:38.092Z,26.90
2022-07-30T13:40:07.045Z,26.90
2022-07-30T13:42:34.000Z,27.20
2022-07-30T13:45:01.083Z,27.50
2022-07-30T13:47:28.011Z,27.80
2022-07-30T13:49:54.957Z,27.80
2022-07-30T13:52:21.854Z,27.90
2022-07-30T13:54:51.322Z,27.90
2022-07-30T13:57:18.382Z,27.80
2022-07-30T13:59:45.260Z,27.90
2022-07-30T14:02:12.247Z,27.60
2022-07-30T14:04:39.237Z,27.50
2022-07-30T14:07:06.159Z,27.30
2022-07-30T14:09:33.228Z,27.20
2022-07-30T14:12:11.558Z,27.20
2022-07-30T14:14:38.542Z,27.30
2022-07-30T14:17:05.481Z,27.30
2022-07-30T14:19:32.379Z,27.40
2022-07-30T14:21:59.512Z,27.50
2022-07-30T14:24:26.399Z,27.40
2022-07-30T14:26:57.723Z,27.10
2022-07-30T14:29:26.231Z,27.00
2022-07-30T14:31:53.511Z,26.90
2022-07-30T14:34:20.714Z,26.80
2022-07-30T14:36:47.607Z,26.60
2022-07-30T14:39:15.727Z,26.30
2022-07-30T14:41:43.266Z,26.00
2022-07-30T14:44:12.378Z,25.90
2022-07-30T14:46:52.185Z,25.70
2022-07-30T14:49:25.840Z,25.60
2022-07-30T14:51:53.310Z,25.60
2022-07-30T14:54:22.505Z,25.70
2022-07-30T14:56:53.605Z,25.80
2022-07-30T14:59:23.360Z,26.10
2022-07-30T15:01:50.451Z,26.10
2022-07-30T15:04:17.826Z,25.70
2022-07-30T15:06:44.869Z,25.50
2022-07-30T15:09:12.206Z,25.40
2022-07-30T15:12:08.929Z,25.50
2022-07-30T15:14:27.156Z,25.40
2022-07-30T15:16:57.522Z,25.70
2022-07-30T15:19:29.026Z,25.80
2022-07-30T15:21:55.927Z,25.80
2022-07-30T15:24:22.883Z,26.10
2022-07-30T15:26:53.734Z,26.70
2022-07-30T15:29:20.811Z,26.90
2022-07-30T15:31:47.727Z,26.90
2022-07-30T15:34:14.589Z,27.20
2022-07-30T15:36:41.812Z,27.40
2022-07-30T15:39:08.691Z,27.50
2022-07-30T15:41:37.098Z,26.50
2022-07-30T15:44:04.260Z,26.30
2022-07-30T15:46:31.153Z,26.30
2022-07-30T15:48:58.113Z,26.10
2022-07-30T15:51:25.056Z,25.70
2022-07-30T15:53:51.920Z,25.80
2022-07-30T15:56:19.060Z,25.70
2022-07-30T15:58:46.050Z,25.30
2022-07-30T16:01:13.054Z,25.20
2022-07-30T16:03:40.054Z,25.40
2022-07-30T16:06:06.913Z,25.60
2022-07-30T16:08:33.777Z,25.60
2022-07-30T16:11:03.847Z,26.10
2022-07-30T16:13:31.819Z,27.10
2022-07-30T16:15:58.838Z,28.40
2022-07-30T16:18:25.803Z,30.00
2022-07-30T16:20:52.739Z,30.30
2022-07-30T16:23:21.677Z,31.00
2022-07-30T16:25:48.930Z,31.90
2022-07-30T16:28:15.815Z,32.10
2022-07-30T16:30:50.697Z,32.60
2022-07-30T16:33:18.778Z,32.50
2022-07-30T16:35:48.918Z,33.60
2022-07-30T16:38:18.126Z,33.40
2022-07-30T16:40:45.472Z,35.10
2022-07-30T16:43:12.389Z,35.00
2022-07-30T16:45:39.566Z,34.70
2022-07-30T16:48:06.639Z,35.40
2022-07-30T16:50:33.679Z,36.10
2022-07-30T16:53:00.641Z,36.80
2022-07-30T16:55:27.658Z,36.60
2022-07-30T16:57:54.534Z,37.20
2022-07-30T17:00:21.511Z,35.40
2022-07-30T17:02:48.370Z,36.70
2022-07-30T17:05:15.264Z,37.10
2022-07-30T17:07:42.187Z,37.90
2022-07-30T17:10:10.917Z,38.20
2022-07-30T17:12:39.209Z,36.60
2022-07-30T17:15:07.856Z,35.20
2022-07-30T17:17:34.722Z,36.20
2022-07-30T17:20:03.863Z,35.50
2022-07-30T17:22:30.943Z,36.20
2022-07-30T17:24:57.856Z,36.40
2022-07-30T17:27:26.612Z,36.10
2022-07-30T17:29:53.487Z,35.90
2022-07-30T17:32:21.561Z,36.20
2022-07-30T17:34:49.271Z,36.40
2022-07-30T17:37:16.783Z,36.40
2022-07-30T17:40:24.676Z,34.10
2022-07-30T17:42:30.798Z,31.90
2022-07-30T17:44:59.459Z,29.20
2022-07-30T17:47:26.303Z,27.60
2022-07-30T17:49:53.551Z,26.30
2022-07-30T17:52:23.396Z,25.10
2022-07-30T17:54:53.163Z,24.10
2022-07-30T17:57:20.932Z,23.30
2022-07-30T17:59:47.845Z,22.70
2022-07-30T18:02:14.931Z,22.20
2022-07-30T18:04:41.805Z,21.90
2022-07-30T18:07:08.685Z,21.70
2022-07-30T18:09:39.519Z,21.50
2022-07-30T18:12:07.268Z,21.40
2022-07-30T18:14:34.222Z,21.00
2022-07-30T18:17:02.852Z,20.90
2022-07-30T18:19:29.817Z,20.70
2022-07-30T18:21:57.155Z,20.60
2022-07-30T18:24:24.982Z,20.40
2022-07-30T18:26:52.767Z,20.20
2022-07-30T18:29:21.030Z,19.90
2022-07-30T18:31:48.242Z,19.80
2022-07-30T18:34:15.354Z,19.70
2022-07-30T18:36:42.243Z,19.60
2022-07-30T18:39:09.145Z,19.60
2022-07-30T18:41:36.086Z,19.60
2022-07-30T18:44:03.075Z,19.50
2022-07-30T18:46:29.977Z,19.40
2022-07-30T18:48:57.042Z,19.40
2022-07-30T18:51:25.292Z,19.30
2022-07-30T18:53:53.558Z,19.30
2022-07-30T18:56:20.758Z,19.20
2022-07-30T18:58:47.714Z,19.00
2022-07-30T19:01:14.837Z,18.90
2022-07-30T19:03:41.811Z,18.90
2022-07-30T19:06:08.721Z,18.80
2022-07-30T19:08:35.726Z,18.70
2022-07-30T19:11:02.886Z,18.60
2022-07-30T19:13:29.821Z,18.50
2022-07-30T19:15:56.740Z,18.30
2022-07-30T19:18:23.667Z,18.10
2022-07-30T19:20:51.736Z,18.00
2022-07-30T19:23:19.052Z,18.00
2022-07-30T19:25:46.057Z,17.90
2022-07-30T19:28:15.383Z,17.80
2022-07-30T19:30:42.376Z,17.80
2022-07-30T19:33:15.185Z,17.70
2022-07-30T19:35:43.090Z,17.60
2022-07-30T19:38:14.305Z,17.60
2022-07-30T19:40:57.091Z,17.60
2022-07-30T19:43:24.676Z,17.50
2022-07-30T19:45:52.189Z,17.40
2022-07-30T19:48:29.535Z,17.30
2022-07-30T19:50:59.541Z,17.20
2022-07-30T19:53:31.278Z,17.10
2022-07-30T19:56:08.143Z,17.00
2022-07-30T19:58:36.749Z,16.90
2022-07-30T20:01:08.491Z,16.80
2022-07-30T20:03:37.230Z,16.70
2022-07-30T20:06:07.615Z,16.80
2022-07-30T20:08:38.257Z,16.80
2022-07-30T20:11:08.327Z,16.90
2022-07-30T20:13:45.409Z,17.10
2022-07-30T20:16:17.558Z,17.10
2022-07-30T20:18:46.188Z,17.10
2022-07-30T20:21:15.612Z,17.00
2022-07-30T20:23:43.575Z,17.00
2022-07-30T20:26:14.176Z,17.10
2022-07-30T20:28:43.380Z,17.00
2022-07-30T20:31:12.902Z,16.90
2022-07-30T20:33:40.159Z,16.70
2022-07-30T20:36:10.037Z,16.60
2022-07-30T20:38:38.927Z,16.50
2022-07-30T20:41:10.097Z,16.50
2022-07-30T20:43:46.152Z,16.90
2022-07-30T20:46:23.209Z,17.20
2022-07-30T20:48:51.650Z,17.20
2022-07-30T20:51:18.927Z,16.90
2022-07-30T20:53:49.280Z,16.80
2022-07-30T20:56:19.419Z,16.50
2022-07-30T20:58:47.502Z,16.40
2022-07-30T21:01:17.645Z,16.20
2022-07-30T21:03:47.632Z,16.10
2022-07-30T21:06:16.020Z,15.90
2022-07-30T21:08:42.882Z,15.80
2022-07-30T21:11:10.018Z,15.80
2022-07-30T21:13:39.312Z,15.60
2022-07-30T21:16:15.593Z,15.60
2022-07-30T21:18:50.231Z,15.50
2022-07-30T21:21:28.967Z,15.50
2022-07-30T21:24:05.759Z,15.50
2022-07-30T21:26:32.704Z,15.50
2022-07-30T21:29:01.081Z,15.40
2022-07-30T21:32:00.471Z,15.40
2022-07-30T21:34:15.643Z,15.40
2022-07-30T21:36:43.387Z,15.30
2022-07-30T21:39:13.978Z,15.30
2022-07-30T21:41:41.192Z,15.20
2022-07-30T21:44:09.789Z,15.20
2022-07-30T21:46:37.982Z,15.10
2022-07-30T21:49:07.232Z,15.10
2022-07-30T21:51:35.010Z,15.10
2022-07-30T21:54:07.303Z,15.10
2022-07-30T21:56:34.471Z,15.00
2022-07-30T21:59:08.470Z,14.90
2022-07-30T22:01:38.652Z,14.90
2022-07-30T22:04:09.131Z,14.90
2022-07-30T22:06:39.098Z,14.80
2022-07-30T22:09:26.405Z,14.80
2022-07-30T22:12:01.681Z,14.80
2022-07-30T22:14:29.367Z,14.90
2022-07-30T22:16:56.735Z,15.00
2022-07-30T22:19:25.802Z,15.00
2022-07-30T22:21:53.123Z,15.20
2022-07-30T22:24:29.555Z,15.20
2022-07-30T22:27:11.010Z,15.30
2022-07-30T22:29:42.731Z,15.40
2022-07-30T22:32:10.141Z,15.30
2022-07-30T22:34:37.956Z,15.30
2022-07-30T22:37:09.179Z,15.20
2022-07-30T22:39:50.900Z,15.20
2022-07-30T22:42:24.297Z,15.40
2022-07-30T22:44:53.037Z,15.50
2022-07-30T22:47:51.551Z,15.70
2022-07-30T22:50:09.147Z,15.80
2022-07-30T22:52:44.194Z,15.90
2022-07-30T22:55:22.138Z,15.90
2022-07-30T22:57:49.923Z,15.90
2022-07-30T23:00:27.774Z,15.90
2022-07-30T23:02:56.181Z,15.80
2022-07-30T23:05:23.373Z,15.60
2022-07-30T23:07:50.636Z,15.60
2022-07-30T23:10:20.324Z,15.50
2022-07-30T23:12:52.912Z,15.40
2022-07-30T23:15:20.537Z,15.40
2022-07-30T23:17:47.830Z,15.40
2022-07-30T23:20:17.389Z,15.40
2022-07-30T23:22:44.262Z,15.40
2022-07-30T23:25:12.882Z,15.40
2022-07-30T23:27:40.474Z,15.40
2022-07-30T23:30:09.593Z,15.30
2022-07-30T23:32:36.860Z,15.30
2022-07-30T23:35:04.477Z,15.30
2022-07-30T23:37:47.567Z,15.40
2022-07-30T23:40:16.110Z,15.30
2022-07-30T23:42:43.134Z,15.20
2022-07-30T23:45:10.484Z,15.10
2022-07-30T23:47:58.018Z,15.10
2022-07-30T23:50:25.612Z,15.10
2022-07-30T23:52:52.621Z,15.10
2022-07-30T23:55:19.603Z,15.10
2022-07-30T23:57:46.476Z,15.10
